Archival Weather

Al Ahsa

Al Ahsa, Saudi Arabia (OEAH)

Report from: Friday, May 26, 2023 8:00 AM +03
Current time: Friday, July 19, 2024 6:41 AM +03

Current weather – Weather history – Daily summaries
Weather forecast

Temperature35.0°C (95.0°F)
Heat index33.3°C (91.9°F)
Dew point10.0°C (50.0°F)
Winds 3 kts (1.5 m/s, 3.5 mph) South-Southeast (150°)
Clouds Sky clear
Altimeter29.80 in.Hg (1009 mB)
Relative humidity22 %
Density altitude2,587 ft. (789 m)
Remarks Ceiling and visibility OK
No significant changes expected in the next two hours
Flight conditions Visual Meteorological Conditions
Raw dataOEAH 260500Z 15003KT CAVOK 35/10 Q1009 NOSIG
An error has occurred. This application may no longer respond until reloaded. Reload 🗙